createdAt,value
2023-05-11T00:00:13.983Z,10.80
2023-05-11T00:00:45.821Z,10.80
2023-05-11T00:01:16.061Z,10.80
2023-05-11T00:01:46.278Z,10.80
2023-05-11T00:02:17.125Z,10.80
2023-05-11T00:02:48.393Z,10.80
2023-05-11T00:03:19.629Z,10.80
2023-05-11T00:03:52.091Z,10.80
2023-05-11T00:04:22.718Z,10.80
2023-05-11T00:04:55.052Z,10.80
2023-05-11T00:05:23.802Z,10.80
2023-05-11T00:05:55.277Z,10.80
2023-05-11T00:06:25.851Z,10.80
2023-05-11T00:06:56.155Z,10.80
2023-05-11T00:07:27.617Z,10.80
2023-05-11T00:07:58.957Z,10.80
2023-05-11T00:08:29.376Z,10.80
2023-05-11T00:09:01.719Z,10.80
2023-05-11T00:09:35.121Z,10.80
2023-05-11T00:10:43.035Z,10.80
2023-05-11T00:11:34.089Z,10.80
2023-05-11T00:12:07.028Z,10.80
2023-05-11T00:12:37.196Z,10.80
2023-05-11T00:14:23.397Z,10.80
2023-05-11T00:14:45.380Z,10.70
2023-05-11T00:15:24.933Z,10.70
2023-05-11T00:15:43.677Z,10.70
2023-05-11T00:16:15.021Z,10.70
2023-05-11T00:16:45.589Z,10.70
2023-05-11T00:17:19.519Z,10.70
2023-05-11T00:17:49.734Z,10.70
2023-05-11T00:18:19.198Z,10.70
2023-05-11T00:18:51.095Z,10.70
2023-05-11T00:19:21.758Z,10.70
2023-05-11T00:19:53.151Z,10.70
2023-05-11T00:20:23.315Z,10.70
2023-05-11T00:20:54.613Z,10.70
2023-05-11T00:21:24.347Z,10.70
2023-05-11T00:21:55.472Z,10.70
2023-05-11T00:22:26.830Z,10.70
2023-05-11T00:22:58.270Z,10.70
2023-05-11T00:23:29.771Z,10.70
2023-05-11T00:24:01.363Z,10.70
2023-05-11T00:24:31.929Z,10.70
2023-05-11T00:25:02.456Z,10.70
2023-05-11T00:25:32.970Z,10.70
2023-05-11T00:26:05.033Z,10.70
2023-05-11T00:26:35.214Z,10.70
2023-05-11T00:27:05.533Z,10.70
2023-05-11T00:27:49.670Z,10.70
2023-05-11T00:28:09.293Z,10.70
2023-05-11T00:28:41.104Z,10.70
2023-05-11T00:29:11.286Z,10.70
2023-05-11T00:29:41.850Z,10.70
2023-05-11T00:30:15.141Z,10.70
2023-05-11T00:30:44.670Z,10.70
2023-05-11T00:35:43.730Z,10.70
2023-05-11T00:35:56.273Z,10.70
2023-05-11T00:36:23.707Z,10.70
2023-05-11T00:36:54.426Z,10.70
2023-05-11T00:37:29.780Z,10.70
2023-05-11T00:37:59.459Z,10.70
2023-05-11T00:38:29.961Z,10.70
2023-05-11T00:39:00.536Z,10.70
2023-05-11T00:39:32.292Z,10.70
2023-05-11T00:40:01.506Z,10.70
2023-05-11T00:40:34.847Z,10.70
2023-05-11T00:41:42.024Z,10.70
2023-05-11T00:42:08.855Z,10.70
2023-05-11T00:42:37.746Z,10.70
2023-05-11T00:43:07.617Z,10.70
2023-05-11T00:43:38.486Z,10.70
2023-05-11T00:44:08.418Z,10.70
2023-05-11T00:44:40.139Z,10.70
2023-05-11T00:45:11.333Z,10.70
2023-05-11T00:45:41.708Z,10.70
2023-05-11T00:46:12.929Z,10.70
2023-05-11T00:46:44.722Z,10.70
2023-05-11T00:47:15.674Z,10.70
2023-05-11T00:47:46.607Z,10.60
2023-05-11T00:48:17.536Z,10.60
2023-05-11T00:48:48.115Z,10.60
2023-05-11T00:49:18.710Z,10.60
2023-05-11T00:49:50.252Z,10.60
2023-05-11T00:50:51.413Z,10.60
2023-05-11T00:51:23.781Z,10.60
2023-05-11T00:51:54.251Z,10.60
2023-05-11T00:52:26.835Z,10.60
2023-05-11T00:52:56.418Z,10.60
2023-05-11T00:53:27.682Z,10.60
2023-05-11T00:53:58.089Z,10.60
2023-05-11T00:54:29.128Z,10.60
2023-05-11T00:55:00.258Z,10.60
2023-05-11T00:55:30.854Z,10.60
2023-05-11T00:56:01.719Z,10.60
2023-05-11T00:56:32.803Z,10.60
2023-05-11T00:57:06.256Z,10.60
2023-05-11T00:57:35.523Z,10.60
2023-05-11T00:58:06.821Z,10.60
2023-05-11T00:58:37.251Z,10.60
2023-05-11T00:59:08.384Z,10.60
2023-05-11T00:59:39.088Z,10.60
2023-05-11T01:00:12.076Z,10.60
2023-05-11T01:00:42.228Z,10.60
2023-05-11T01:01:16.136Z,10.60
2023-05-11T01:01:42.605Z,10.60
2023-05-11T01:02:14.068Z,10.60
2023-05-11T01:02:45.740Z,10.60
2023-05-11T01:03:16.333Z,10.60
2023-05-11T01:03:47.435Z,10.60
2023-05-11T01:04:48.661Z,10.60
2023-05-11T01:05:20.256Z,10.60
2023-05-11T01:05:51.146Z,10.60
2023-05-11T01:06:52.669Z,10.60
2023-05-11T01:07:24.344Z,10.60
2023-05-11T01:07:55.766Z,10.60
2023-05-11T01:08:27.045Z,10.60
2023-05-11T01:08:57.499Z,10.60
2023-05-11T01:09:28.650Z,10.60
2023-05-11T01:09:59.352Z,10.60
2023-05-11T01:10:30.615Z,10.60
2023-05-11T01:11:03.740Z,10.60
2023-05-11T01:11:32.378Z,10.60
2023-05-11T01:12:03.103Z,10.60
2023-05-11T01:13:05.834Z,10.60
2023-05-11T01:13:42.686Z,10.60
2023-05-11T01:14:08.348Z,10.60
2023-05-11T01:14:38.240Z,10.70
2023-05-11T01:15:09.431Z,10.70
2023-05-11T01:15:39.877Z,10.70
2023-05-11T01:16:11.707Z,10.70
2023-05-11T01:16:42.090Z,10.70
2023-05-11T01:17:12.913Z,10.70
2023-05-11T01:17:43.601Z,10.70
2023-05-11T01:18:16.485Z,10.70
2023-05-11T01:18:46.801Z,10.70
2023-05-11T01:19:17.861Z,10.70
2023-05-11T01:19:48.441Z,10.70
2023-05-11T01:20:49.819Z,10.70
2023-05-11T01:21:20.938Z,10.70
2023-05-11T01:21:52.401Z,10.70
2023-05-11T01:22:22.526Z,10.70
2023-05-11T01:22:55.507Z,10.70
2023-05-11T01:23:26.076Z,10.70
2023-05-11T01:23:57.090Z,10.70
2023-05-11T01:24:28.054Z,10.70
2023-05-11T01:24:58.230Z,10.70
2023-05-11T01:25:29.417Z,10.70
2023-05-11T01:25:59.949Z,10.70
2023-05-11T01:26:31.519Z,10.70
2023-05-11T01:27:02.241Z,10.70
2023-05-11T01:27:32.686Z,10.70
2023-05-11T01:28:18.178Z,10.70
2023-05-11T01:28:36.388Z,10.70
2023-05-11T01:29:06.406Z,10.70
2023-05-11T01:29:36.986Z,10.70
2023-05-11T01:30:09.507Z,10.70
2023-05-11T01:30:38.839Z,10.70
2023-05-11T01:31:09.893Z,10.70
2023-05-11T01:31:58.502Z,10.70
2023-05-11T01:32:12.095Z,10.70
2023-05-11T01:32:42.673Z,10.70
2023-05-11T01:33:13.935Z,10.70
2023-05-11T01:33:46.320Z,10.70
2023-05-11T01:34:17.420Z,10.70
2023-05-11T01:34:47.301Z,10.70
2023-05-11T01:35:18.886Z,10.70
2023-05-11T01:35:48.980Z,10.70
2023-05-11T01:36:20.079Z,10.70
2023-05-11T01:36:51.453Z,10.70
2023-05-11T01:37:23.106Z,10.70
2023-05-11T01:37:53.179Z,10.70
2023-05-11T01:38:24.552Z,10.70
2023-05-11T01:38:55.941Z,10.70
2023-05-11T01:39:27.664Z,10.70
2023-05-11T01:39:58.308Z,10.70
2023-05-11T01:40:28.471Z,10.70
2023-05-11T01:40:59.217Z,10.70
2023-05-11T01:41:29.886Z,10.70
2023-05-11T01:42:01.177Z,10.70
2023-05-11T01:42:32.589Z,10.70
2023-05-11T01:43:03.086Z,10.70
2023-05-11T01:43:33.883Z,10.70
2023-05-11T01:44:05.300Z,10.70
2023-05-11T01:44:36.857Z,10.70
2023-05-11T01:45:25.125Z,10.70
2023-05-11T01:45:38.403Z,10.70
2023-05-11T01:46:09.155Z,10.70
2023-05-11T01:46:40.158Z,10.70
2023-05-11T01:47:11.342Z,10.70
2023-05-11T01:47:42.185Z,10.70
2023-05-11T01:48:12.825Z,10.70
2023-05-11T01:48:43.803Z,10.70
2023-05-11T01:49:16.089Z,10.70
2023-05-11T01:49:47.158Z,10.70
2023-05-11T01:50:18.426Z,10.70
2023-05-11T01:50:48.427Z,10.70
2023-05-11T01:51:19.036Z,10.70
2023-05-11T01:51:49.972Z,10.70
2023-05-11T01:52:21.378Z,10.70
2023-05-11T01:52:52.270Z,10.70
2023-05-11T01:53:22.942Z,10.70
2023-05-11T01:53:54.098Z,10.70
2023-05-11T01:54:26.504Z,10.70
2023-05-11T01:54:57.068Z,10.70
2023-05-11T01:55:27.812Z,10.70
2023-05-11T01:55:59.702Z,10.70
2023-05-11T01:56:29.260Z,10.70
2023-05-11T01:57:00.548Z,10.70
2023-05-11T01:57:31.729Z,10.70
2023-05-11T01:58:02.558Z,10.70
2023-05-11T01:58:33.137Z,10.70
2023-05-11T01:59:03.767Z,10.70
2023-05-11T02:00:06.918Z,10.70
2023-05-11T02:00:38.135Z,10.70
2023-05-11T02:01:08.781Z,10.70
2023-05-11T02:01:39.009Z,10.70
2023-05-11T02:02:10.465Z,10.70
2023-05-11T02:02:41.781Z,10.70
2023-05-11T02:03:29.390Z,10.70
2023-05-11T02:03:43.103Z,10.70
2023-05-11T02:04:18.036Z,10.70
2023-05-11T02:04:45.401Z,10.70
2023-05-11T02:05:17.677Z,10.70
2023-05-11T02:05:47.995Z,10.70
2023-05-11T02:06:18.741Z,10.70
2023-05-11T02:06:49.424Z,10.70
2023-05-11T02:07:20.103Z,10.70
2023-05-11T02:07:51.436Z,10.70
2023-05-11T02:08:23.008Z,10.70
2023-05-11T02:08:53.048Z,10.70
2023-05-11T02:09:23.754Z,10.70
2023-05-11T02:09:55.967Z,10.70
2023-05-11T02:10:28.744Z,10.70
2023-05-11T02:10:58.050Z,10.70
2023-05-11T02:11:29.092Z,10.70
2023-05-11T02:11:59.426Z,10.70
2023-05-11T02:12:30.428Z,10.70
2023-05-11T02:13:01.584Z,10.70
2023-05-11T02:13:32.635Z,10.70
2023-05-11T02:14:03.632Z,10.70
2023-05-11T02:14:33.970Z,10.70
2023-05-11T02:15:06.890Z,10.70
2023-05-11T02:15:37.697Z,10.70
2023-05-11T02:16:08.136Z,10.70
2023-05-11T02:16:38.537Z,10.70
2023-05-11T02:17:09.577Z,10.70
2023-05-11T02:17:40.582Z,10.70
2023-05-11T02:18:11.869Z,10.70
2023-05-11T02:18:42.212Z,10.60
2023-05-11T02:19:13.390Z,10.60
2023-05-11T02:19:44.700Z,10.60
2023-05-11T02:20:16.516Z,10.60
2023-05-11T02:20:47.749Z,10.60
2023-05-11T02:21:18.281Z,10.60
2023-05-11T02:21:48.571Z,10.60
2023-05-11T02:22:19.458Z,10.60
2023-05-11T02:22:50.052Z,10.60
2023-05-11T02:23:21.757Z,10.60
2023-05-11T02:23:52.669Z,10.60
2023-05-11T02:24:23.131Z,10.60
2023-05-11T02:24:54.103Z,10.60
2023-05-11T02:25:25.243Z,10.60
2023-05-11T02:25:57.976Z,10.60
2023-05-11T02:26:28.629Z,10.60
2023-05-11T02:27:00.252Z,10.60
2023-05-11T02:27:29.418Z,10.60
2023-05-11T02:28:31.705Z,10.60
2023-05-11T02:29:02.533Z,10.60
2023-05-11T02:29:33.535Z,10.60
2023-05-11T02:30:05.817Z,10.60
2023-05-11T02:30:36.510Z,10.60
2023-05-11T02:31:08.428Z,10.60
2023-05-11T02:31:38.358Z,10.60
2023-05-11T02:32:08.998Z,10.60
2023-05-11T02:32:39.930Z,10.60
2023-05-11T02:33:10.631Z,10.60
2023-05-11T02:33:41.182Z,10.60
2023-05-11T02:34:12.356Z,10.60
2023-05-11T02:34:43.008Z,10.60
2023-05-11T02:35:14.406Z,10.60
2023-05-11T02:36:02.733Z,10.60
2023-05-11T02:36:17.644Z,10.60
2023-05-11T02:36:47.953Z,10.60
2023-05-11T02:37:18.828Z,10.60
2023-05-11T02:37:49.671Z,10.60
2023-05-11T02:38:20.066Z,10.60
2023-05-11T02:38:51.554Z,10.60
2023-05-11T02:39:22.582Z,10.60
2023-05-11T02:39:53.150Z,10.60
2023-05-11T02:40:30.263Z,10.60
2023-05-11T02:40:55.171Z,10.60
2023-05-11T02:41:27.507Z,10.60
2023-05-11T02:41:58.209Z,10.60
2023-05-11T02:42:29.174Z,10.60
2023-05-11T02:43:00.344Z,10.60
2023-05-11T02:43:30.378Z,10.60
2023-05-11T02:44:19.460Z,10.60
2023-05-11T02:44:32.496Z,10.60
2023-05-11T02:45:03.929Z,10.60
2023-05-11T02:45:34.221Z,10.60
2023-05-11T02:46:05.386Z,10.60
2023-05-11T02:46:36.729Z,10.60
2023-05-11T02:47:08.053Z,10.60
2023-05-11T02:47:39.132Z,10.60
2023-05-11T02:48:10.322Z,10.60
2023-05-11T02:48:40.130Z,10.60
2023-05-11T02:49:11.400Z,10.60
2023-05-11T02:49:42.373Z,10.60
2023-05-11T02:50:13.649Z,10.60
2023-05-11T02:50:44.167Z,10.60
2023-05-11T02:51:46.470Z,10.60
2023-05-11T02:52:18.386Z,10.60
2023-05-11T02:52:48.712Z,10.60
2023-05-11T02:53:20.053Z,10.60
2023-05-11T02:53:50.774Z,10.60
2023-05-11T02:54:21.942Z,10.60
2023-05-11T02:54:52.245Z,10.60
2023-05-11T02:55:23.380Z,10.60
2023-05-11T02:55:54.258Z,10.60
2023-05-11T02:56:56.470Z,10.60
2023-05-11T02:57:29.047Z,10.60
2023-05-11T02:57:59.103Z,10.60
2023-05-11T02:58:30.602Z,10.60
2023-05-11T02:59:00.545Z,10.60
2023-05-11T02:59:31.812Z,10.60
2023-05-11T03:00:34.776Z,10.60
2023-05-11T03:01:04.385Z,10.50
2023-05-11T03:01:35.234Z,10.50
2023-05-11T03:02:06.560Z,10.50
2023-05-11T03:02:38.555Z,10.50
2023-05-11T03:03:09.416Z,10.50
2023-05-11T03:03:40.348Z,10.50
2023-05-11T03:04:10.828Z,10.50
2023-05-11T03:04:41.787Z,10.50
2023-05-11T03:05:12.457Z,10.50
2023-05-11T03:06:14.570Z,10.50
2023-05-11T03:06:45.413Z,10.50
2023-05-11T03:07:16.937Z,10.50
2023-05-11T03:07:48.154Z,10.50
2023-05-11T03:08:19.003Z,10.50
2023-05-11T03:08:50.034Z,10.50
2023-05-11T03:09:21.128Z,10.50
2023-05-11T03:09:52.231Z,10.50
2023-05-11T03:10:22.824Z,10.50
2023-05-11T03:10:53.310Z,10.50
2023-05-11T03:11:41.781Z,10.50
2023-05-11T03:11:55.312Z,10.50
2023-05-11T03:12:27.476Z,10.50
2023-05-11T03:12:58.370Z,10.50
2023-05-11T03:13:29.253Z,10.50
2023-05-11T03:13:59.946Z,10.40
2023-05-11T03:14:30.838Z,10.40
2023-05-11T03:15:02.438Z,10.40
2023-05-11T03:15:32.717Z,10.40
2023-05-11T03:16:03.240Z,10.40
2023-05-11T03:17:05.129Z,10.40
2023-05-11T03:17:36.238Z,10.40
2023-05-11T03:18:08.437Z,10.40
2023-05-11T03:18:39.426Z,10.40
2023-05-11T03:19:09.953Z,10.40
2023-05-11T03:19:40.463Z,10.40
2023-05-11T03:20:12.323Z,10.40
2023-05-11T03:20:42.477Z,10.40
2023-05-11T03:21:13.381Z,10.40
2023-05-11T03:21:44.235Z,10.40
2023-05-11T03:22:15.064Z,10.40
2023-05-11T03:22:46.730Z,10.40
2023-05-11T03:23:49.075Z,10.40
2023-05-11T03:24:50.862Z,10.40
2023-05-11T03:25:22.284Z,10.40
2023-05-11T03:25:52.716Z,10.40
2023-05-11T03:26:23.518Z,10.40
2023-05-11T03:26:54.425Z,10.40
2023-05-11T03:27:25.247Z,10.40
2023-05-11T03:27:56.752Z,10.40
2023-05-11T03:28:28.399Z,10.50
2023-05-11T03:29:00.590Z,10.50
2023-05-11T03:29:30.606Z,10.50
2023-05-11T03:30:02.951Z,10.50
2023-05-11T03:30:32.401Z,10.50
2023-05-11T03:31:02.916Z,10.50
2023-05-11T03:31:33.252Z,10.50
2023-05-11T03:32:04.099Z,10.50
2023-05-11T03:32:35.525Z,10.50
2023-05-11T03:33:06.454Z,10.50
2023-05-11T03:34:09.464Z,10.50
2023-05-11T03:34:56.333Z,10.50
2023-05-11T03:35:11.387Z,10.50
2023-05-11T03:35:41.816Z,10.50
2023-05-11T03:36:12.823Z,10.50
2023-05-11T03:36:43.228Z,10.50
2023-05-11T03:37:15.085Z,10.50
2023-05-11T03:37:45.716Z,10.50
2023-05-11T03:38:16.537Z,10.50
2023-05-11T03:38:47.950Z,10.50
2023-05-11T03:39:50.848Z,10.50
2023-05-11T03:40:22.854Z,10.50
2023-05-11T03:40:53.865Z,10.50
2023-05-11T03:41:25.112Z,10.50
2023-05-11T03:41:54.306Z,10.50
2023-05-11T03:42:56.650Z,10.50
2023-05-11T03:43:27.831Z,10.50
2023-05-11T03:43:59.580Z,10.50
2023-05-11T03:44:30.530Z,10.50
2023-05-11T03:45:02.315Z,10.50
2023-05-11T03:45:32.585Z,10.60
2023-05-11T03:46:03.879Z,10.60
2023-05-11T03:46:34.287Z,10.60
2023-05-11T03:47:05.105Z,10.60
2023-05-11T03:47:35.944Z,10.60
2023-05-11T03:48:08.115Z,10.60
2023-05-11T03:48:37.108Z,10.60
2023-05-11T03:49:11.402Z,10.60
2023-05-11T03:49:40.770Z,10.60
2023-05-11T03:50:12.365Z,10.60
2023-05-11T03:51:13.643Z,10.60
2023-05-11T03:51:44.305Z,10.60
2023-05-11T03:52:15.288Z,10.60
2023-05-11T03:52:45.147Z,10.60
2023-05-11T03:53:16.227Z,10.70
2023-05-11T03:53:48.354Z,10.70
2023-05-11T03:54:18.810Z,10.70
2023-05-11T03:54:50.803Z,10.70
2023-05-11T03:55:22.024Z,10.70
2023-05-11T03:55:52.659Z,10.70
2023-05-11T03:56:24.056Z,10.70
2023-05-11T03:56:54.363Z,10.70
2023-05-11T03:57:24.684Z,10.70
2023-05-11T03:57:55.497Z,10.70
2023-05-11T03:58:26.315Z,10.70
2023-05-11T03:58:56.964Z,10.70
2023-05-11T04:00:00.453Z,10.70
2023-05-11T04:00:32.842Z,10.70
2023-05-11T04:01:02.794Z,10.70
2023-05-11T04:01:34.423Z,10.70
2023-05-11T04:02:04.432Z,10.70
2023-05-11T04:02:35.413Z,10.70
2023-05-11T04:03:05.868Z,10.70
2023-05-11T04:03:37.155Z,10.70
2023-05-11T04:04:38.119Z,10.70
2023-05-11T04:05:13.515Z,10.70
2023-05-11T04:05:39.851Z,10.70
2023-05-11T04:06:11.095Z,10.70
2023-05-11T04:06:43.272Z,10.70
2023-05-11T04:07:15.242Z,10.70
2023-05-11T04:07:45.315Z,10.70
2023-05-11T04:08:16.542Z,10.70
2023-05-11T04:08:47.302Z,10.70
2023-05-11T04:09:17.412Z,10.70
2023-05-11T04:09:48.663Z,10.80
2023-05-11T04:10:22.680Z,10.80
2023-05-11T04:10:51.614Z,10.80
2023-05-11T04:11:21.561Z,10.80
2023-05-11T04:11:51.297Z,10.80
2023-05-11T04:12:25.012Z,10.80
2023-05-11T04:12:56.041Z,10.80
2023-05-11T04:13:25.820Z,10.80
2023-05-11T04:13:56.257Z,10.80
2023-05-11T04:14:27.340Z,10.80
2023-05-11T04:14:57.765Z,10.80
2023-05-11T04:15:31.006Z,10.80
2023-05-11T04:16:32.354Z,10.80
2023-05-11T04:17:03.522Z,10.80
2023-05-11T04:17:33.643Z,10.80
2023-05-11T04:18:04.408Z,10.80
2023-05-11T04:18:35.071Z,10.90
2023-05-11T04:19:06.131Z,10.90
2023-05-11T04:19:54.037Z,10.90
2023-05-11T04:20:08.037Z,10.90
2023-05-11T04:20:38.709Z,10.90
2023-05-11T04:21:10.583Z,10.90
2023-05-11T04:21:41.528Z,10.90
2023-05-11T04:22:11.936Z,10.90
2023-05-11T04:22:42.807Z,10.90
2023-05-11T04:23:13.933Z,10.90
2023-05-11T04:23:45.178Z,10.90
2023-05-11T04:24:15.617Z,10.90
2023-05-11T04:24:46.767Z,10.90
2023-05-11T04:25:18.584Z,11.00
2023-05-11T04:25:49.965Z,11.00
2023-05-11T04:26:20.751Z,11.00
2023-05-11T04:26:51.662Z,11.00
2023-05-11T04:27:22.214Z,11.00
2023-05-11T04:27:52.907Z,11.00
2023-05-11T04:28:24.112Z,11.00
2023-05-11T04:28:54.655Z,11.00
2023-05-11T04:29:25.697Z,11.00
2023-05-11T04:29:57.251Z,11.00
2023-05-11T04:30:28.086Z,11.00
2023-05-11T04:30:58.396Z,11.10
2023-05-11T04:32:02.313Z,11.10
2023-05-11T04:32:32.561Z,11.10
2023-05-11T04:33:04.579Z,11.10
2023-05-11T04:33:34.023Z,11.10
2023-05-11T04:34:04.737Z,11.10
2023-05-11T04:34:35.583Z,11.10
2023-05-11T04:35:07.332Z,11.10
2023-05-11T04:35:38.225Z,11.10
2023-05-11T04:36:24.696Z,11.20
2023-05-11T04:36:40.854Z,11.20
2023-05-11T04:37:11.933Z,11.20
2023-05-11T04:37:42.317Z,11.20
2023-05-11T04:38:13.265Z,11.20
2023-05-11T04:38:44.449Z,11.20
2023-05-11T04:39:14.502Z,11.20
2023-05-11T04:39:46.082Z,11.20
2023-05-11T04:40:17.399Z,11.20
2023-05-11T04:40:47.572Z,11.30
2023-05-11T04:41:20.098Z,11.30
2023-05-11T04:41:50.727Z,11.30
2023-05-11T04:42:39.463Z,11.30
2023-05-11T04:42:51.844Z,11.30
2023-05-11T04:43:23.065Z,11.30
2023-05-11T04:43:54.124Z,11.30
2023-05-11T04:44:31.632Z,11.30
2023-05-11T04:44:55.542Z,11.30
2023-05-11T04:45:26.951Z,11.30
2023-05-11T04:45:57.810Z,11.30
2023-05-11T04:46:30.392Z,11.30
2023-05-11T04:47:00.934Z,11.30
2023-05-11T04:47:31.744Z,11.40
2023-05-11T04:48:02.924Z,11.40
2023-05-11T04:48:33.301Z,11.40
2023-05-11T04:49:04.434Z,11.40
2023-05-11T04:49:34.823Z,11.40
2023-05-11T04:50:06.286Z,11.40
2023-05-11T04:50:36.602Z,11.40
2023-05-11T04:51:08.370Z,11.50
2023-05-11T04:52:10.326Z,11.50
2023-05-11T04:52:41.129Z,11.50
2023-05-11T04:53:13.849Z,11.50
2023-05-11T04:53:43.021Z,11.50
2023-05-11T04:54:14.058Z,11.50
2023-05-11T04:54:44.999Z,11.50
2023-05-11T04:55:16.005Z,11.50
2023-05-11T04:55:46.682Z,11.50
2023-05-11T04:56:19.263Z,11.50
2023-05-11T04:56:49.548Z,11.60
2023-05-11T04:57:21.133Z,11.60
2023-05-11T04:57:51.837Z,11.60
2023-05-11T04:58:22.308Z,11.60
2023-05-11T04:58:53.321Z,11.60
2023-05-11T04:59:23.989Z,11.60
2023-05-11T05:00:14.440Z,11.60
2023-05-11T05:00:26.540Z,11.60
2023-05-11T05:00:56.587Z,11.60
2023-05-11T05:01:31.965Z,11.60
2023-05-11T05:01:59.720Z,11.70
2023-05-11T05:02:30.210Z,11.70
2023-05-11T05:03:01.492Z,11.70
2023-05-11T05:03:32.977Z,11.70
2023-05-11T05:04:03.160Z,11.70
2023-05-11T05:04:36.435Z,11.70
2023-05-11T05:05:04.851Z,11.70
2023-05-11T05:05:36.061Z,11.70
2023-05-11T05:06:06.703Z,11.70
2023-05-11T05:06:39.210Z,11.70
2023-05-11T05:07:11.111Z,11.70
2023-05-11T05:07:58.188Z,11.80
2023-05-11T05:08:11.244Z,11.80
2023-05-11T05:08:41.623Z,11.80
2023-05-11T05:09:13.176Z,11.80
2023-05-11T05:09:45.515Z,11.80
2023-05-11T05:10:14.896Z,11.80
2023-05-11T05:10:50.553Z,11.80
2023-05-11T05:11:29.665Z,11.80
2023-05-11T05:11:48.642Z,11.80
2023-05-11T05:12:21.822Z,11.80
2023-05-11T05:12:50.534Z,11.90
2023-05-11T05:13:21.755Z,11.90
2023-05-11T05:14:01.166Z,11.90
2023-05-11T05:14:23.072Z,11.90
2023-05-11T05:14:53.755Z,11.90
2023-05-11T05:15:30.936Z,11.90
2023-05-11T05:15:55.765Z,11.90
2023-05-11T05:16:26.832Z,11.90
2023-05-11T05:16:59.420Z,11.90
2023-05-11T05:17:30.371Z,11.90
2023-05-11T05:18:01.639Z,11.90
2023-05-11T05:18:31.866Z,11.90
2023-05-11T05:19:02.552Z,11.90
2023-05-11T05:19:33.121Z,11.90
2023-05-11T05:20:04.386Z,11.90
2023-05-11T05:20:34.779Z,11.90
2023-05-11T05:21:05.722Z,12.00
2023-05-11T05:21:48.101Z,12.00
2023-05-11T05:22:08.363Z,12.00
2023-05-11T05:22:39.681Z,12.00
2023-05-11T05:23:10.772Z,12.00
2023-05-11T05:23:42.890Z,12.00
2023-05-11T05:24:12.534Z,12.00
2023-05-11T05:24:43.254Z,12.00
2023-05-11T05:25:14.011Z,12.10
2023-05-11T05:25:45.198Z,12.10
2023-05-11T05:26:22.804Z,12.10
2023-05-11T05:26:49.711Z,12.10
2023-05-11T05:27:18.838Z,12.10
2023-05-11T05:27:49.636Z,12.10
2023-05-11T05:28:20.631Z,12.10
2023-05-11T05:28:51.854Z,12.10
2023-05-11T05:29:22.659Z,12.10
2023-05-11T05:29:53.136Z,12.10
2023-05-11T05:30:24.493Z,12.10
2023-05-11T05:30:59.414Z,12.10
2023-05-11T05:31:26.077Z,12.10
2023-05-11T05:31:56.994Z,12.10
2023-05-11T05:32:29.221Z,12.10
2023-05-11T05:33:00.650Z,12.20
2023-05-11T05:33:31.647Z,12.20
2023-05-11T05:34:02.395Z,12.20
2023-05-11T05:34:32.436Z,12.20
2023-05-11T05:35:04.665Z,12.20
2023-05-11T05:35:34.089Z,12.20
2023-05-11T05:36:06.299Z,12.20
2023-05-11T05:36:35.879Z,12.20
2023-05-11T05:37:07.077Z,12.20
2023-05-11T05:37:38.917Z,12.20
2023-05-11T05:38:09.949Z,12.20
2023-05-11T05:38:41.742Z,12.20
2023-05-11T05:39:12.819Z,12.30
2023-05-11T05:39:43.081Z,12.30
2023-05-11T05:40:13.772Z,12.30
2023-05-11T05:40:45.477Z,12.30
2023-05-11T05:41:15.455Z,12.30
2023-05-11T05:41:45.609Z,12.30
2023-05-11T05:42:17.123Z,12.30
2023-05-11T05:42:48.798Z,12.30
2023-05-11T05:43:20.207Z,12.30
2023-05-11T05:43:50.901Z,12.30
2023-05-11T05:44:21.789Z,12.30
2023-05-11T05:44:52.653Z,12.30
2023-05-11T05:46:09.616Z,12.30
2023-05-11T05:46:25.348Z,12.30
2023-05-11T05:46:56.034Z,12.40
2023-05-11T05:47:27.355Z,12.40
2023-05-11T05:47:58.389Z,12.40
2023-05-11T05:48:30.111Z,12.40
2023-05-11T05:49:00.836Z,12.40
2023-05-11T05:49:31.792Z,12.40
2023-05-11T05:50:02.693Z,12.40
2023-05-11T05:50:37.622Z,12.40
2023-05-11T05:51:05.597Z,12.40
2023-05-11T05:51:36.243Z,12.40
2023-05-11T05:52:06.798Z,12.30
2023-05-11T05:52:37.484Z,12.30
2023-05-11T05:53:08.011Z,12.30
2023-05-11T05:53:39.984Z,12.30
2023-05-11T05:54:11.064Z,12.30
2023-05-11T05:54:58.473Z,12.30
2023-05-11T05:55:12.698Z,12.30
2023-05-11T05:55:43.973Z,12.30
2023-05-11T05:56:15.468Z,12.40
2023-05-11T05:56:45.793Z,12.40
2023-05-11T05:57:16.642Z,12.40
2023-05-11T05:57:47.434Z,12.40
2023-05-11T05:58:18.008Z,12.40
2023-05-11T05:58:49.467Z,12.50
2023-05-11T05:59:20.858Z,12.50
2023-05-11T05:59:51.519Z,12.50
2023-05-11T06:00:22.897Z,12.50
2023-05-11T06:00:53.493Z,12.50
2023-05-11T06:01:25.627Z,12.50
2023-05-11T06:01:55.490Z,12.60
2023-05-11T06:02:26.752Z,12.60
2023-05-11T06:02:57.415Z,12.60
2023-05-11T06:03:57.247Z,12.50
2023-05-11T06:04:37.695Z,12.50
2023-05-11T06:05:01.277Z,12.50
2023-05-11T06:05:31.992Z,12.50
2023-05-11T06:06:04.515Z,12.50
2023-05-11T06:06:35.749Z,12.40
2023-05-11T06:07:06.146Z,12.40
2023-05-11T06:07:36.603Z,12.40
2023-05-11T06:08:11.121Z,12.40
2023-05-11T06:08:38.197Z,12.30
2023-05-11T06:09:17.942Z,12.30
2023-05-11T06:09:40.347Z,12.30
2023-05-11T06:10:12.047Z,12.30
2023-05-11T06:10:42.203Z,12.20
2023-05-11T06:11:45.349Z,12.20
2023-05-11T06:12:16.554Z,12.20
2023-05-11T06:12:46.701Z,12.20
2023-05-11T06:13:17.545Z,12.30
2023-05-11T06:13:48.271Z,12.30
2023-05-11T06:14:19.020Z,12.30
2023-05-11T06:14:50.851Z,12.30
2023-05-11T06:15:22.291Z,12.40
2023-05-11T06:15:52.435Z,12.40
2023-05-11T06:16:23.703Z,12.50
2023-05-11T06:16:55.747Z,12.50
2023-05-11T06:17:26.313Z,12.50
2023-05-11T06:17:57.056Z,12.60
2023-05-11T06:18:27.727Z,12.60
2023-05-11T06:18:58.566Z,12.70
2023-05-11T06:19:30.095Z,12.70
2023-05-11T06:20:00.941Z,12.70
2023-05-11T06:20:31.675Z,12.70
2023-05-11T06:21:02.221Z,12.70
2023-05-11T06:21:50.910Z,12.70
2023-05-11T06:22:06.696Z,12.70
2023-05-11T06:22:36.345Z,12.70
2023-05-11T06:23:07.944Z,12.70
2023-05-11T06:23:37.790Z,12.70
2023-05-11T06:24:08.614Z,12.70
2023-05-11T06:24:39.345Z,12.70
2023-05-11T06:25:11.136Z,12.70
2023-05-11T06:25:41.969Z,12.70
2023-05-11T06:26:12.692Z,12.70
2023-05-11T06:26:43.034Z,12.70
2023-05-11T06:27:18.082Z,12.70
2023-05-11T06:27:46.709Z,12.70
2023-05-11T06:28:17.268Z,12.80
2023-05-11T06:28:47.606Z,12.80
2023-05-11T06:29:18.595Z,12.80
2023-05-11T06:29:49.182Z,12.70
2023-05-11T06:30:21.705Z,12.70
2023-05-11T06:30:52.986Z,12.70
2023-05-11T06:31:22.435Z,12.70
2023-05-11T06:31:53.305Z,12.70
2023-05-11T06:32:25.380Z,12.70
2023-05-11T06:32:56.430Z,12.70
2023-05-11T06:33:27.273Z,12.70
2023-05-11T06:33:57.671Z,12.70
2023-05-11T06:34:28.266Z,12.70
2023-05-11T06:34:59.307Z,12.70
2023-05-11T06:35:30.862Z,12.70
2023-05-11T06:36:04.235Z,12.70
2023-05-11T06:36:32.281Z,12.80
2023-05-11T06:37:04.214Z,12.80
2023-05-11T06:37:36.728Z,12.80
2023-05-11T06:38:07.169Z,12.80
2023-05-11T06:38:37.587Z,12.80
2023-05-11T06:39:08.576Z,12.90
2023-05-11T06:39:39.046Z,12.90
2023-05-11T06:40:10.364Z,12.90
2023-05-11T06:40:40.975Z,12.90
2023-05-11T06:41:11.924Z,12.90
2023-05-11T06:41:42.147Z,12.80
2023-05-11T06:42:14.211Z,12.80
2023-05-11T06:42:45.001Z,12.80
2023-05-11T06:43:17.051Z,12.80
2023-05-11T06:43:47.157Z,12.90
2023-05-11T06:44:18.300Z,12.90
2023-05-11T06:44:48.569Z,12.90
2023-05-11T06:45:20.934Z,13.00
2023-05-11T06:45:50.955Z,13.00
2023-05-11T06:46:21.936Z,13.00
2023-05-11T06:46:52.089Z,13.00
2023-05-11T06:47:23.242Z,13.10
2023-05-11T06:47:54.610Z,13.10
2023-05-11T06:48:26.852Z,13.10
2023-05-11T06:48:57.213Z,13.10
2023-05-11T06:49:28.134Z,13.10
2023-05-11T06:49:58.333Z,13.10
2023-05-11T06:50:30.260Z,13.10
2023-05-11T06:51:01.002Z,13.20
2023-05-11T06:51:31.712Z,13.20
2023-05-11T06:52:02.460Z,13.20
2023-05-11T06:52:33.385Z,13.20
2023-05-11T06:53:06.071Z,13.10
2023-05-11T06:53:36.433Z,13.10
2023-05-11T06:54:07.492Z,13.10
2023-05-11T06:54:41.343Z,13.10
2023-05-11T06:55:09.274Z,13.00
2023-05-11T06:55:40.039Z,13.00
2023-05-11T06:56:11.278Z,13.00
2023-05-11T06:56:42.032Z,13.00
2023-05-11T06:57:14.389Z,13.00
2023-05-11T06:57:43.319Z,13.00
2023-05-11T06:58:46.831Z,13.00
2023-05-11T06:59:17.484Z,13.00
2023-05-11T06:59:48.424Z,13.00